createdAt,value
2023-03-05T00:00:55.096Z,0.84
2023-03-05T00:03:22.533Z,0.87
2023-03-05T00:05:49.809Z,0.82
2023-03-05T00:08:17.034Z,0.89
2023-03-05T00:10:44.250Z,0.88
2023-03-05T00:13:11.473Z,0.85
2023-03-05T00:15:42.262Z,0.81
2023-03-05T00:18:09.517Z,0.77
2023-03-05T00:20:36.774Z,0.74
2023-03-05T00:23:04.187Z,0.80
2023-03-05T00:25:31.502Z,0.80
2023-03-05T00:27:58.733Z,0.76
2023-03-05T00:30:25.980Z,0.79
2023-03-05T00:32:53.273Z,0.79
2023-03-05T00:35:20.616Z,0.66
2023-03-05T00:37:48.987Z,0.75
2023-03-05T00:40:16.609Z,0.82
2023-03-05T00:42:43.873Z,0.84
2023-03-05T00:45:11.587Z,0.98
2023-03-05T00:47:38.841Z,0.84
2023-03-05T00:50:06.836Z,0.79
2023-03-05T00:52:34.074Z,0.75
2023-03-05T00:55:01.335Z,0.72
2023-03-05T00:57:28.588Z,0.65
2023-03-05T00:59:55.809Z,0.70
2023-03-05T01:02:23.066Z,0.75
2023-03-05T01:04:51.213Z,0.81
2023-03-05T01:07:18.727Z,0.82
2023-03-05T01:09:46.004Z,0.81
2023-03-05T01:12:13.272Z,0.89
2023-03-05T01:14:40.523Z,0.84
2023-03-05T01:17:08.133Z,0.83
2023-03-05T01:19:35.450Z,0.80
2023-03-05T01:22:03.179Z,0.76
2023-03-05T01:24:31.461Z,0.79
2023-03-05T01:26:58.916Z,0.75
2023-03-05T01:29:26.528Z,0.72
2023-03-05T01:31:53.881Z,0.71
2023-03-05T01:34:21.446Z,0.75
2023-03-05T01:36:50.581Z,0.69
2023-03-05T01:39:17.899Z,0.77
2023-03-05T01:41:45.409Z,0.72
2023-03-05T01:44:31.105Z,0.77
2023-03-05T01:46:58.442Z,0.71
2023-03-05T01:49:27.821Z,0.67
2023-03-05T01:52:07.363Z,0.52
2023-03-05T01:54:39.359Z,0.41
2023-03-05T01:57:09.602Z,0.32
2023-03-05T01:59:38.039Z,0.12
2023-03-05T02:02:06.094Z,0.00
2023-03-05T02:04:41.656Z,-0.03
2023-03-05T02:07:08.971Z,-0.11
2023-03-05T02:09:40.856Z,-0.25
2023-03-05T02:12:08.878Z,-0.25
2023-03-05T02:14:37.414Z,-0.21
2023-03-05T02:17:05.371Z,-0.31
2023-03-05T02:19:47.292Z,-0.41
2023-03-05T02:22:15.841Z,-0.41
2023-03-05T02:24:43.162Z,-0.41
2023-03-05T02:27:10.568Z,-0.36
2023-03-05T02:29:37.985Z,-0.47
2023-03-05T02:32:05.407Z,-0.57
2023-03-05T02:34:32.739Z,-0.56
2023-03-05T02:37:02.610Z,-0.66
2023-03-05T02:39:31.617Z,-0.83
2023-03-05T02:41:58.917Z,-0.81
2023-03-05T02:44:27.182Z,-0.82
2023-03-05T02:46:54.533Z,-0.84
2023-03-05T02:49:21.849Z,-0.89
2023-03-05T02:51:49.154Z,-0.90
2023-03-05T02:54:17.925Z,-0.97
2023-03-05T02:56:45.280Z,-1.01
2023-03-05T02:59:12.644Z,-1.02
2023-03-05T03:01:40.336Z,-1.03
2023-03-05T03:04:07.856Z,-1.03
2023-03-05T03:06:35.153Z,-1.12
2023-03-05T03:09:02.417Z,-1.13
2023-03-05T03:11:29.672Z,-1.19
2023-03-05T03:13:56.921Z,-1.28
2023-03-05T03:16:24.212Z,-1.30
2023-03-05T03:18:51.576Z,-1.25
2023-03-05T03:21:20.314Z,-1.27
2023-03-05T03:23:47.622Z,-1.29
2023-03-05T03:26:14.910Z,-1.24
2023-03-05T03:28:42.168Z,-1.26
2023-03-05T03:31:09.501Z,-1.21
2023-03-05T03:33:36.858Z,-1.13
2023-03-05T03:36:04.902Z,-1.18
2023-03-05T03:38:33.444Z,-1.11
2023-03-05T03:41:00.744Z,-1.20
2023-03-05T03:43:27.999Z,-1.23
2023-03-05T03:45:55.317Z,-1.25
2023-03-05T03:48:25.568Z,-1.08
2023-03-05T03:50:52.862Z,-1.11
2023-03-05T03:53:20.168Z,-1.16
2023-03-05T03:55:47.493Z,-1.21
2023-03-05T03:58:14.808Z,-1.07
2023-03-05T04:00:42.182Z,-1.06
2023-03-05T04:03:09.427Z,-0.98
2023-03-05T04:05:36.683Z,-1.01
2023-03-05T04:08:04.218Z,-1.11
2023-03-05T04:10:31.440Z,-0.93
2023-03-05T04:12:58.731Z,-0.84
2023-03-05T04:15:26.166Z,-0.80
2023-03-05T04:17:53.474Z,-0.81
2023-03-05T04:20:20.920Z,-0.82
2023-03-05T04:22:48.322Z,-0.80
2023-03-05T04:25:15.628Z,-0.61
2023-03-05T04:27:42.871Z,-0.61
2023-03-05T04:30:11.973Z,-0.78
2023-03-05T04:32:39.296Z,-0.75
2023-03-05T04:35:06.874Z,-0.68
2023-03-05T04:37:34.156Z,-0.70
2023-03-05T04:40:01.439Z,-0.72
2023-03-05T04:42:28.793Z,-0.75
2023-03-05T04:44:56.070Z,-0.69
2023-03-05T04:47:23.434Z,-0.65
2023-03-05T04:49:50.814Z,-0.66
2023-03-05T04:52:18.122Z,-0.71
2023-03-05T04:54:45.574Z,-0.61
2023-03-05T04:57:12.859Z,-0.50
2023-03-05T04:59:40.148Z,-0.45
2023-03-05T05:02:07.476Z,-0.50
2023-03-05T05:04:36.125Z,-0.34
2023-03-05T05:07:03.655Z,-0.28
2023-03-05T05:09:31.053Z,-0.20
2023-03-05T05:11:58.331Z,-0.07
2023-03-05T05:14:25.613Z,0.02
2023-03-05T05:16:52.898Z,0.13
2023-03-05T05:19:20.175Z,0.10
2023-03-05T05:21:47.517Z,0.13
2023-03-05T05:24:14.785Z,0.03
2023-03-05T05:26:42.041Z,0.00
2023-03-05T05:29:09.300Z,0.08
2023-03-05T05:31:36.859Z,0.08
2023-03-05T05:34:04.134Z,0.04
2023-03-05T05:36:31.436Z,-0.11
2023-03-05T05:38:58.749Z,-0.06
2023-03-05T05:41:26.020Z,-0.06
2023-03-05T05:43:53.310Z,-0.01
2023-03-05T05:46:20.928Z,-0.14
2023-03-05T05:48:48.390Z,-0.03
2023-03-05T05:51:18.041Z,0.01
2023-03-05T05:53:45.734Z,0.09
2023-03-05T05:56:13.400Z,-0.02
2023-03-05T05:58:41.128Z,-0.02
2023-03-05T06:01:15.322Z,0.00
2023-03-05T06:03:42.681Z,-0.03
2023-03-05T06:06:11.619Z,0.03
2023-03-05T06:08:39.045Z,0.11
2023-03-05T06:11:06.689Z,0.19
2023-03-05T06:13:34.174Z,0.30
2023-03-05T06:16:03.060Z,0.39
2023-03-05T06:18:30.507Z,0.42
2023-03-05T06:20:58.894Z,0.51
2023-03-05T06:23:26.333Z,0.50
2023-03-05T06:25:53.780Z,0.52
2023-03-05T06:28:21.360Z,0.46
2023-03-05T06:30:48.722Z,0.54
2023-03-05T06:33:16.109Z,0.65
2023-03-05T06:35:43.367Z,0.67
2023-03-05T06:38:10.618Z,0.69
2023-03-05T06:40:39.329Z,0.78
2023-03-05T06:43:06.746Z,0.76
2023-03-05T06:45:34.149Z,0.76
2023-03-05T06:48:01.809Z,0.79
2023-03-05T06:50:29.133Z,0.86
2023-03-05T06:52:56.473Z,0.83
2023-03-05T06:55:23.785Z,0.91
2023-03-05T06:57:51.075Z,0.99
2023-03-05T07:00:18.567Z,1.04
2023-03-05T07:02:45.832Z,1.15
2023-03-05T07:05:13.240Z,1.15
2023-03-05T07:07:40.512Z,1.15
2023-03-05T07:10:08.720Z,1.25
2023-03-05T07:12:36.019Z,1.23
2023-03-05T07:15:03.534Z,1.28
2023-03-05T07:17:30.786Z,1.19
2023-03-05T07:19:58.036Z,1.33
2023-03-05T07:22:25.333Z,1.39
2023-03-05T07:24:52.674Z,1.42
2023-03-05T07:27:20.033Z,1.50
2023-03-05T07:29:47.276Z,1.55
2023-03-05T07:32:14.594Z,1.67
2023-03-05T07:34:42.880Z,1.67
2023-03-05T07:37:10.122Z,1.53
2023-03-05T07:39:37.388Z,1.71
2023-03-05T07:42:04.708Z,1.65
2023-03-05T07:44:48.806Z,1.83
2023-03-05T07:47:16.140Z,1.92
2023-03-05T07:49:43.466Z,2.08
2023-03-05T07:52:10.755Z,2.06
2023-03-05T07:54:40.874Z,2.21
2023-03-05T07:57:08.723Z,2.11
2023-03-05T07:59:36.081Z,2.30
2023-03-05T08:02:03.385Z,2.47
2023-03-05T08:04:31.981Z,2.57
2023-03-05T08:06:59.887Z,2.55
2023-03-05T08:09:28.093Z,2.62
2023-03-05T08:11:55.425Z,2.83
2023-03-05T08:14:22.789Z,2.83
2023-03-05T08:16:53.438Z,2.98
2023-03-05T08:19:21.333Z,3.06
2023-03-05T08:21:48.719Z,3.03
2023-03-05T08:24:16.093Z,3.10
2023-03-05T08:26:43.633Z,3.25
2023-03-05T08:29:11.240Z,3.27
2023-03-05T08:31:38.816Z,3.23
2023-03-05T08:34:06.204Z,3.29
2023-03-05T08:36:33.502Z,3.31
2023-03-05T08:39:00.975Z,3.41
2023-03-05T08:41:28.385Z,3.47
2023-03-05T08:43:55.721Z,3.41
2023-03-05T08:46:23.051Z,3.49
2023-03-05T08:48:50.407Z,3.38
2023-03-05T08:51:19.564Z,3.31
2023-03-05T08:53:47.200Z,3.19
2023-03-05T08:56:14.805Z,3.25
2023-03-05T08:58:42.850Z,3.25
2023-03-05T09:01:10.232Z,3.33
2023-03-05T09:03:37.981Z,3.50
2023-03-05T09:06:07.044Z,3.50
2023-03-05T09:08:34.768Z,3.56
2023-03-05T09:11:06.173Z,3.45
2023-03-05T09:13:33.641Z,3.45
2023-03-05T09:16:05.647Z,3.49
2023-03-05T09:18:33.216Z,3.56
2023-03-05T09:21:04.616Z,3.59
2023-03-05T09:23:31.954Z,3.64
2023-03-05T09:25:59.206Z,3.67
2023-03-05T09:28:26.522Z,3.68
2023-03-05T09:30:53.885Z,3.49
2023-03-05T09:33:21.151Z,3.55
2023-03-05T09:35:48.884Z,3.60
2023-03-05T09:38:16.212Z,3.49
2023-03-05T09:40:55.940Z,3.55
2023-03-05T09:43:30.987Z,3.48
2023-03-05T09:46:13.421Z,3.62
2023-03-05T09:48:44.515Z,3.68
2023-03-05T09:51:14.267Z,3.70
2023-03-05T09:53:46.280Z,3.72
2023-03-05T09:56:23.246Z,3.91
2023-03-05T09:58:56.237Z,3.97
2023-03-05T10:01:29.264Z,3.91
2023-03-05T10:04:16.643Z,3.96
2023-03-05T10:06:57.560Z,4.12
2023-03-05T10:09:50.090Z,4.43
2023-03-05T10:12:35.543Z,4.45
2023-03-05T10:15:03.280Z,4.40
2023-03-05T10:18:08.271Z,4.45
2023-03-05T10:20:46.698Z,4.36
2023-03-05T10:23:26.003Z,4.55
2023-03-05T10:26:17.467Z,4.60
2023-03-05T10:28:48.971Z,4.77
2023-03-05T10:31:31.670Z,4.85
2023-03-05T10:34:14.442Z,4.77
2023-03-05T10:37:04.373Z,4.93
2023-03-05T10:39:46.983Z,4.94
2023-03-05T10:42:39.027Z,5.12
2023-03-05T10:45:17.140Z,5.17
2023-03-05T10:47:46.026Z,5.30
2023-03-05T10:50:27.549Z,5.15
2023-03-05T10:53:27.131Z,5.03
2023-03-05T10:55:56.590Z,5.15
2023-03-05T10:58:24.868Z,5.10
2023-03-05T11:01:28.999Z,5.31
2023-03-05T11:04:06.461Z,5.31
2023-03-05T11:06:41.484Z,5.44
2023-03-05T11:09:21.907Z,5.64
2023-03-05T11:12:08.534Z,5.21
2023-03-05T11:14:38.681Z,5.34
2023-03-05T11:17:39.012Z,5.42
2023-03-05T11:20:27.922Z,5.50
2023-03-05T11:23:10.874Z,5.65
2023-03-05T11:25:56.421Z,5.55
2023-03-05T11:28:32.922Z,5.40
2023-03-05T11:31:07.709Z,5.42
2023-03-05T11:33:36.247Z,5.48
2023-03-05T11:36:13.087Z,5.54
2023-03-05T11:38:51.367Z,5.39
2023-03-05T11:41:21.216Z,5.13
2023-03-05T11:43:48.458Z,5.23
2023-03-05T11:46:16.618Z,5.27
2023-03-05T11:48:43.995Z,5.34
2023-03-05T11:51:26.988Z,5.13
2023-03-05T11:53:56.900Z,5.02
2023-03-05T11:56:28.049Z,5.00
2023-03-05T11:59:32.136Z,5.09
2023-03-05T12:01:59.533Z,5.08
2023-03-05T12:04:27.038Z,5.20
2023-03-05T12:07:03.526Z,5.24
2023-03-05T12:09:56.204Z,5.29
2023-03-05T12:12:47.586Z,5.20
2023-03-05T12:15:17.560Z,5.19
2023-03-05T12:18:03.340Z,5.10
2023-03-05T12:20:48.007Z,5.07
2023-03-05T12:23:20.321Z,4.90
2023-03-05T12:25:52.390Z,4.92
2023-03-05T12:28:35.913Z,4.91
2023-03-05T12:31:04.035Z,4.91
2023-03-05T12:33:34.172Z,4.95
2023-03-05T12:36:19.626Z,5.09
2023-03-05T12:38:54.148Z,5.04
2023-03-05T12:41:25.902Z,5.30
2023-03-05T12:44:06.790Z,5.39
2023-03-05T12:46:40.720Z,5.52
2023-03-05T12:49:20.310Z,5.58
2023-03-05T12:51:48.210Z,5.63
2023-03-05T12:54:29.469Z,5.75
2023-03-05T12:56:58.694Z,5.67
2023-03-05T12:59:49.088Z,5.79
2023-03-05T13:02:21.364Z,5.77
2023-03-05T13:04:48.704Z,5.85
2023-03-05T13:07:16.961Z,5.71
2023-03-05T13:09:57.887Z,5.42
2023-03-05T13:12:26.701Z,5.27
2023-03-05T13:15:07.839Z,5.35
2023-03-05T13:17:41.124Z,5.29
2023-03-05T13:20:27.010Z,5.29
2023-03-05T13:23:14.029Z,5.32
2023-03-05T13:25:41.376Z,5.39
2023-03-05T13:28:15.772Z,5.36
2023-03-05T13:30:45.578Z,5.39
2023-03-05T13:33:18.069Z,5.34
2023-03-05T13:35:46.290Z,5.44
2023-03-05T13:38:24.327Z,5.49
2023-03-05T13:41:05.454Z,5.35
2023-03-05T13:43:32.810Z,5.41
2023-03-05T13:46:00.256Z,5.47
2023-03-05T13:48:28.240Z,5.40
2023-03-05T13:50:56.929Z,5.42
2023-03-05T13:53:24.153Z,5.48
2023-03-05T13:55:59.710Z,5.63
2023-03-05T13:58:50.812Z,5.67
2023-03-05T14:01:50.298Z,5.83
2023-03-05T14:04:19.882Z,5.87
2023-03-05T14:07:03.834Z,5.91
2023-03-05T14:09:41.070Z,5.88
2023-03-05T14:12:32.901Z,5.94
2023-03-05T14:15:02.334Z,5.82
2023-03-05T14:17:35.347Z,5.75
2023-03-05T14:20:23.876Z,5.73
2023-03-05T14:22:53.194Z,5.66
2023-03-05T14:25:37.670Z,5.70
2023-03-05T14:28:17.130Z,5.75
2023-03-05T14:30:48.431Z,5.65
2023-03-05T14:33:17.860Z,5.76
2023-03-05T14:35:48.620Z,5.68
2023-03-05T14:38:23.549Z,5.72
2023-03-05T14:40:51.402Z,5.76
2023-03-05T14:43:18.660Z,5.76
2023-03-05T14:45:46.722Z,5.71
2023-03-05T14:48:15.493Z,5.86
2023-03-05T14:50:52.484Z,5.93
2023-03-05T14:53:25.879Z,5.94
2023-03-05T14:55:56.733Z,5.90
2023-03-05T14:58:26.094Z,5.92
2023-03-05T15:00:53.668Z,5.87
2023-03-05T15:03:21.472Z,5.86
2023-03-05T15:05:51.087Z,5.93
2023-03-05T15:08:25.883Z,5.92
2023-03-05T15:10:53.279Z,5.90
2023-03-05T15:13:20.805Z,5.84
2023-03-05T15:15:48.674Z,5.92
2023-03-05T15:18:17.493Z,5.85
2023-03-05T15:20:44.994Z,5.73
2023-03-05T15:23:13.012Z,5.70
2023-03-05T15:25:40.632Z,5.72
2023-03-05T15:28:07.927Z,5.55
2023-03-05T15:30:40.288Z,5.51
2023-03-05T15:33:09.609Z,5.51
2023-03-05T15:35:37.047Z,5.31
2023-03-05T15:38:04.561Z,5.34
2023-03-05T15:40:31.910Z,5.25
2023-03-05T15:42:59.488Z,5.27
2023-03-05T15:45:27.423Z,5.31
2023-03-05T15:47:54.687Z,5.24
2023-03-05T15:50:21.958Z,5.19
2023-03-05T15:52:49.307Z,5.20
2023-03-05T15:55:18.307Z,5.12
2023-03-05T15:57:47.151Z,4.97
2023-03-05T16:00:15.187Z,5.06
2023-03-05T16:02:42.455Z,5.05
2023-03-05T16:05:10.191Z,4.97
2023-03-05T16:07:38.759Z,4.97
2023-03-05T16:10:06.626Z,5.03
2023-03-05T16:12:40.739Z,5.02
2023-03-05T16:15:10.083Z,5.04
2023-03-05T16:17:37.397Z,4.98
2023-03-05T16:20:05.204Z,4.90
2023-03-05T16:22:32.613Z,4.83
2023-03-05T16:25:01.324Z,4.79
2023-03-05T16:27:29.040Z,4.72
2023-03-05T16:29:56.369Z,4.69
2023-03-05T16:32:24.098Z,4.63
2023-03-05T16:34:51.405Z,4.65
2023-03-05T16:37:20.121Z,4.58
2023-03-05T16:39:47.606Z,4.55
2023-03-05T16:42:15.041Z,4.57
2023-03-05T16:44:42.444Z,4.62
2023-03-05T16:47:12.177Z,4.56
2023-03-05T16:49:39.732Z,4.63
2023-03-05T16:52:18.394Z,4.61
2023-03-05T16:54:46.292Z,4.58
2023-03-05T16:57:13.543Z,4.56
2023-03-05T16:59:41.624Z,4.55
2023-03-05T17:02:08.962Z,4.45
2023-03-05T17:04:37.063Z,4.41
2023-03-05T17:07:05.529Z,4.41
2023-03-05T17:09:32.912Z,4.37
2023-03-05T17:12:00.294Z,4.33
2023-03-05T17:14:27.688Z,4.35
2023-03-05T17:16:54.960Z,4.29
2023-03-05T17:19:22.265Z,4.23
2023-03-05T17:21:51.199Z,4.15
2023-03-05T17:24:20.826Z,4.13
2023-03-05T17:26:50.164Z,4.06
2023-03-05T17:29:19.042Z,3.90
2023-03-05T17:31:46.994Z,3.92
2023-03-05T17:34:14.722Z,3.88
2023-03-05T17:36:45.575Z,3.89
2023-03-05T17:39:13.905Z,3.82
2023-03-05T17:41:43.332Z,3.76
2023-03-05T17:44:10.571Z,3.71
2023-03-05T17:46:37.795Z,3.70
2023-03-05T17:49:05.087Z,3.57
2023-03-05T17:51:32.332Z,3.56
2023-03-05T17:53:59.622Z,3.56
2023-03-05T17:56:26.990Z,3.51
2023-03-05T17:58:54.596Z,3.45
2023-03-05T18:01:29.429Z,3.46
2023-03-05T18:03:57.015Z,3.54
2023-03-05T18:06:24.521Z,3.41
2023-03-05T18:08:51.918Z,3.33
2023-03-05T18:11:19.219Z,3.31
2023-03-05T18:13:46.486Z,3.27
2023-03-05T18:16:16.907Z,3.29
2023-03-05T18:18:44.655Z,3.25
2023-03-05T18:21:11.911Z,3.27
2023-03-05T18:23:39.191Z,3.23
2023-03-05T18:26:06.478Z,3.24
2023-03-05T18:28:33.778Z,3.25
2023-03-05T18:31:01.276Z,3.17
2023-03-05T18:33:28.633Z,3.21
2023-03-05T18:35:56.463Z,3.16
2023-03-05T18:38:25.381Z,3.10
2023-03-05T18:40:53.370Z,3.13
2023-03-05T18:43:21.249Z,3.11
2023-03-05T18:45:49.593Z,3.11
2023-03-05T18:48:16.837Z,3.08
2023-03-05T18:50:44.070Z,3.04
2023-03-05T18:53:14.551Z,3.03
2023-03-05T18:55:42.858Z,2.99
2023-03-05T18:58:10.300Z,2.90
2023-03-05T19:00:37.569Z,2.89
2023-03-05T19:03:05.893Z,2.92
2023-03-05T19:05:33.349Z,2.86
2023-03-05T19:08:01.240Z,2.90
2023-03-05T19:10:28.551Z,2.86
2023-03-05T19:13:43.794Z,2.81
2023-03-05T19:16:13.557Z,2.74
2023-03-05T19:19:16.603Z,2.78
2023-03-05T19:21:48.205Z,2.74
2023-03-05T19:24:15.659Z,2.75
2023-03-05T19:26:43.401Z,2.75
2023-03-05T19:29:10.684Z,2.69
2023-03-05T19:31:38.096Z,2.69
2023-03-05T19:34:05.921Z,2.54
2023-03-05T19:36:34.429Z,2.61
2023-03-05T19:39:04.253Z,2.67
2023-03-05T19:41:31.619Z,2.65
2023-03-05T19:43:58.991Z,2.60
2023-03-05T19:46:26.317Z,2.54
2023-03-05T19:48:53.687Z,2.55
2023-03-05T19:51:22.110Z,2.56
2023-03-05T19:53:49.437Z,2.53
2023-03-05T19:56:16.836Z,2.57
2023-03-05T19:58:45.611Z,2.53
2023-03-05T20:01:18.021Z,2.53
2023-03-05T20:03:49.384Z,2.50
2023-03-05T20:06:16.890Z,2.47
2023-03-05T20:08:44.638Z,2.47
2023-03-05T20:11:13.098Z,2.43
2023-03-05T20:13:40.457Z,2.42
2023-03-05T20:16:21.812Z,2.38
2023-03-05T20:18:52.870Z,2.45
2023-03-05T20:21:23.220Z,2.39
2023-03-05T20:23:54.564Z,2.48
2023-03-05T20:26:22.281Z,2.43
2023-03-05T20:28:49.912Z,2.38
2023-03-05T20:31:20.762Z,2.30
2023-03-05T20:33:48.171Z,2.32
2023-03-05T20:36:15.533Z,2.34
2023-03-05T20:38:42.841Z,2.28
2023-03-05T20:41:11.758Z,2.23
2023-03-05T20:43:44.744Z,2.28
2023-03-05T20:46:17.394Z,2.22
2023-03-05T20:48:44.971Z,2.26
2023-03-05T20:51:18.648Z,2.21
2023-03-05T20:53:45.936Z,2.21
2023-03-05T20:56:13.290Z,2.18
2023-03-05T20:58:40.563Z,2.30
2023-03-05T21:01:07.994Z,2.32
2023-03-05T21:03:37.212Z,2.42
2023-03-05T21:06:04.820Z,2.41
2023-03-05T21:08:32.105Z,2.44
2023-03-05T21:10:59.545Z,2.45
2023-03-05T21:13:26.946Z,2.48
2023-03-05T21:15:54.198Z,2.47
2023-03-05T21:18:21.525Z,2.46
2023-03-05T21:20:48.867Z,2.50
2023-03-05T21:23:16.668Z,2.53
2023-03-05T21:25:43.996Z,2.57
2023-03-05T21:28:12.931Z,2.56
2023-03-05T21:30:43.558Z,2.52
2023-03-05T21:33:12.621Z,2.44
2023-03-05T21:35:40.018Z,2.50
2023-03-05T21:38:07.692Z,2.52
2023-03-05T21:40:35.900Z,2.59
2023-03-05T21:43:03.782Z,2.50
2023-03-05T21:45:31.283Z,2.49
2023-03-05T21:48:01.205Z,2.55
2023-03-05T21:50:28.525Z,2.49
2023-03-05T21:52:56.108Z,2.41
2023-03-05T21:56:22.081Z,2.34
2023-03-05T21:58:49.524Z,2.25
2023-03-05T22:01:18.463Z,2.23
2023-03-05T22:03:46.012Z,2.15
2023-03-05T22:06:13.863Z,2.13
2023-03-05T22:08:41.259Z,2.15
2023-03-05T22:11:11.325Z,2.07
2023-03-05T22:13:38.697Z,2.13
2023-03-05T22:16:06.269Z,2.04
2023-03-05T22:18:33.624Z,1.90
2023-03-05T22:21:01.002Z,1.93
2023-03-05T22:23:29.948Z,1.90
2023-03-05T22:26:01.275Z,1.92
2023-03-05T22:28:28.608Z,1.89
2023-03-05T22:30:56.020Z,1.97
2023-03-05T22:33:23.463Z,1.97
2023-03-05T22:35:50.950Z,1.97
2023-03-05T22:38:18.266Z,1.93
2023-03-05T22:40:47.108Z,1.85
2023-03-05T22:43:14.503Z,1.90
2023-03-05T22:45:41.799Z,1.93
2023-03-05T22:48:12.197Z,1.96
2023-03-05T22:50:39.948Z,1.95
2023-03-05T22:53:07.368Z,1.99
2023-03-05T22:55:34.606Z,1.94
2023-03-05T22:58:01.867Z,1.89
2023-03-05T23:00:29.113Z,1.88
2023-03-05T23:02:56.550Z,1.88
2023-03-05T23:05:23.926Z,1.81
2023-03-05T23:07:51.161Z,1.65
2023-03-05T23:10:20.255Z,1.37
2023-03-05T23:12:50.073Z,1.15
2023-03-05T23:15:31.514Z,0.90
2023-03-05T23:17:58.909Z,0.81
2023-03-05T23:20:31.133Z,0.55
2023-03-05T23:22:58.416Z,0.47
2023-03-05T23:25:27.809Z,0.31
2023-03-05T23:27:55.098Z,0.22
2023-03-05T23:30:23.155Z,0.22
2023-03-05T23:33:00.202Z,0.23
2023-03-05T23:35:28.498Z,0.21
2023-03-05T23:37:56.545Z,0.11
2023-03-05T23:40:25.768Z,0.04
2023-03-05T23:42:53.209Z,0.10
2023-03-05T23:45:21.044Z,0.07
2023-03-05T23:47:48.695Z,0.01
2023-03-05T23:50:18.028Z,-0.08
2023-03-05T23:52:45.376Z,0.01
2023-03-05T23:55:23.387Z,-0.08
2023-03-05T23:57:50.658Z,-0.04
